Time;durP1;ratioP1;P1;durP2;ratioP2;P2;SDS_P1;SDS_P2;PMS_P1;PMS_P2;Temp;Humidity;BMP_temperature;BMP_pressure;BME280_temperature;BME280_humidity;BME280_pressure;Samples;Min_cycle;Max_cycle;Signal;HPM_P1;HPM_P2
2024/01/07 00:02:22;;;;;;;11.23;5.13;;;;;;;10.28;44.69;101911.97;5052020;28;20053;-73
2024/01/07 00:04:47;;;;;;;9.73;5.00;;;;;;;9.80;45.34;101913.28;5033493;28;20941;-72
2024/01/07 00:07:13;;;;;;;7.20;4.23;;;;;;;10.07;44.91;101919.63;5075939;28;20103;-72
2024/01/07 00:09:38;;;;;;;6.53;4.10;;;;;;;9.70;45.28;101916.63;5072037;28;20028;-72
2024/01/07 00:12:04;;;;;;;9.60;5.20;;;;;;;9.99;44.74;101925.66;5062182;28;20025;-72
2024/01/07 00:14:29;;;;;;;5.87;3.57;;;;;;;10.08;44.75;101927.47;5051493;28;20075;-72
2024/01/07 00:16:54;;;;;;;10.40;5.83;;;;;;;10.40;43.47;101926.03;5068002;28;20500;-72
2024/01/07 00:19:20;;;;;;;8.23;4.67;;;;;;;10.33;43.67;101935.53;5052091;28;20028;-73
2024/01/07 00:21:45;;;;;;;7.80;4.57;;;;;;;10.29;44.30;101938.97;5055531;28;20021;-72
2024/01/07 00:24:10;;;;;;;9.00;4.27;;;;;;;10.11;43.56;101942.31;5072461;28;20064;-72
2024/01/07 00:26:36;;;;;;;9.63;4.60;;;;;;;10.39;43.11;101946.09;5068935;28;20028;-72
2024/01/07 00:29:01;;;;;;;7.97;4.87;;;;;;;10.42;44.21;101935.66;5071449;28;20028;-71
2024/01/07 00:31:26;;;;;;;10.97;5.27;;;;;;;10.32;43.73;101947.75;5067857;28;20032;-73
2024/01/07 00:33:52;;;;;;;11.23;5.50;;;;;;;10.59;43.43;101941.03;5051510;28;20033;-73
2024/01/07 00:36:17;;;;;;;8.67;5.23;;;;;;;11.24;42.23;101946.66;5031484;28;20032;-73
2024/01/07 00:38:42;;;;;;;9.50;4.97;;;;;;;9.89;44.06;101949.94;5070679;28;20021;-73
2024/01/07 00:41:08;;;;;;;7.50;4.00;;;;;;;10.44;43.22;101940.88;5071316;28;20033;-73
2024/01/07 00:43:33;;;;;;;9.90;5.03;;;;;;;11.47;41.58;101951.09;5069580;28;20028;-73
2024/01/07 00:45:58;;;;;;;8.80;4.83;;;;;;;10.35;44.03;101960.84;5068992;28;20064;-73
2024/01/07 00:48:24;;;;;;;8.70;4.97;;;;;;;10.04;44.79;101956.19;5065326;28;20090;-73
2024/01/07 00:50:49;;;;;;;8.37;5.37;;;;;;;9.88;44.61;101953.41;5070462;28;20412;-73
2024/01/07 00:53:14;;;;;;;8.27;5.77;;;;;;;10.57;43.58;101947.97;5065408;28;20040;-73
2024/01/07 00:55:40;;;;;;;11.07;5.07;;;;;;;10.04;43.75;101953.56;5051951;28;20075;-73
2024/01/07 00:58:05;;;;;;;7.23;4.77;;;;;;;10.14;44.48;101950.19;5062666;28;20028;-71
2024/01/07 01:00:30;;;;;;;11.20;5.20;;;;;;;10.89;42.90;101957.78;5071139;28;20140;-73
2024/01/07 01:02:56;;;;;;;14.07;5.47;;;;;;;10.27;44.29;101957.25;5062246;28;20033;-73
2024/01/07 01:05:21;;;;;;;7.47;4.60;;;;;;;10.21;43.72;101962.44;5050491;28;20035;-73
2024/01/07 01:07:47;;;;;;;7.33;4.30;;;;;;;10.52;43.35;101960.13;5075418;28;20029;-73
2024/01/07 01:10:14;;;;;;;9.83;5.53;;;;;;;10.86;44.02;101963.00;5071886;28;20035;-73
2024/01/07 01:12:40;;;;;;;8.37;4.50;;;;;;;10.88;43.93;101966.53;5066431;28;20075;-73
2024/01/07 01:15:05;;;;;;;8.87;4.80;;;;;;;10.80;43.56;101968.19;5051219;28;20056;-74
2024/01/07 01:17:31;;;;;;;7.40;4.43;;;;;;;10.86;43.83;101968.22;5069718;28;20123;-73
2024/01/07 01:19:56;;;;;;;7.83;3.77;;;;;;;10.07;44.28;101966.66;5071093;28;20119;-73
2024/01/07 01:22:21;;;;;;;7.37;3.97;;;;;;;10.76;42.96;101971.66;5064321;28;20033;-73
2024/01/07 01:24:48;;;;;;;7.83;4.67;;;;;;;10.35;43.78;101976.53;5069946;28;20498;-73
2024/01/07 01:27:15;;;;;;;9.60;4.97;;;;;;;10.82;43.43;101977.78;5063041;28;20048;-73
2024/01/07 01:29:41;;;;;;;9.03;4.67;;;;;;;9.43;45.92;101985.94;5068614;28;20136;-73
2024/01/07 01:32:06;;;;;;;12.83;5.87;;;;;;;9.42;45.03;101978.97;5058162;28;20112;-73
2024/01/07 01:34:32;;;;;;;4.60;3.87;;;;;;;8.90;46.78;101974.78;5050930;28;20040;-73
2024/01/07 01:36:57;;;;;;;9.83;5.00;;;;;;;9.75;45.20;101985.47;5051986;28;20033;-73
2024/01/07 01:39:22;;;;;;;7.77;4.77;;;;;;;10.14;44.00;101976.31;5062876;28;20025;-74
2024/01/07 01:41:48;;;;;;;8.87;4.70;;;;;;;10.86;43.06;101981.31;5060626;28;20387;-73
2024/01/07 01:44:13;;;;;;;10.93;5.93;;;;;;;10.23;44.38;101986.84;5061862;28;20395;-74
2024/01/07 01:46:38;;;;;;;8.17;4.73;;;;;;;9.29;46.55;101994.44;5062321;28;20116;-73
2024/01/07 01:49:04;;;;;;;10.37;4.87;;;;;;;10.00;44.03;101995.34;5050099;28;20053;-73
2024/01/07 01:51:30;;;;;;;11.70;5.53;;;;;;;10.21;44.33;101999.03;5049930;28;20464;-73
2024/01/07 01:53:57;;;;;;;10.07;5.30;;;;;;;9.81;44.82;102006.44;5058877;28;20070;-73
2024/01/07 01:56:26;;;;;;;12.13;6.03;;;;;;;9.81;44.95;102003.81;5068136;28;20064;-73
2024/01/07 01:58:51;;;;;;;12.23;5.53;;;;;;;10.27;43.94;102004.31;5057055;28;20059;-73
2024/01/07 02:01:17;;;;;;;9.70;4.97;;;;;;;9.96;44.24;102003.09;5071160;28;20021;-73
2024/01/07 02:03:42;;;;;;;8.20;4.93;;;;;;;10.11;44.17;102005.00;5064140;28;20036;-73
2024/01/07 02:06:09;;;;;;;10.30;5.63;;;;;;;10.72;42.61;102011.72;5050186;28;20377;-74
2024/01/07 02:08:35;;;;;;;10.10;5.40;;;;;;;10.25;43.96;102011.25;5052404;28;20058;-74
2024/01/07 02:11:20;;;;;;;9.83;4.60;;;;;;;10.48;44.46;102013.25;5071537;28;20016;-74
2024/01/07 02:13:46;;;;;;;10.70;5.43;;;;;;;10.61;43.89;102015.13;5063356;28;20032;-73
2024/01/07 02:16:12;;;;;;;11.63;5.70;;;;;;;10.18;44.17;102014.69;5066545;28;20381;-73
2024/01/07 02:18:42;;;;;;;6.60;3.57;;;;;;;8.93;46.22;102015.66;5053586;28;20116;-73
2024/01/07 02:21:09;;;;;;;10.67;4.83;;;;;;;10.28;44.05;102024.34;5053732;28;20036;-73
2024/01/07 02:23:35;;;;;;;8.27;4.40;;;;;;;10.68;42.83;102024.75;5052661;28;20028;-73
2024/01/07 02:26:00;;;;;;;11.10;5.27;;;;;;;9.91;43.78;102026.56;5069927;28;20025;-73
2024/01/07 02:28:25;;;;;;;8.43;5.03;;;;;;;10.37;42.92;102031.44;5049033;28;20086;-73
2024/01/07 02:30:51;;;;;;;9.53;4.93;;;;;;;10.62;43.38;102029.94;5057582;28;20029;-73
2024/01/07 02:33:16;;;;;;;11.80;5.30;;;;;;;10.89;42.72;102030.16;5051325;28;20040;-73
2024/01/07 02:35:42;;;;;;;11.47;5.20;;;;;;;10.31;43.41;102036.59;5068455;28;20509;-73
2024/01/07 02:38:07;;;;;;;10.27;5.50;;;;;;;10.98;42.33;102031.09;5070987;28;20028;-73
2024/01/07 02:40:32;;;;;;;8.63;4.90;;;;;;;10.49;43.33;102042.00;5050338;28;20595;-73
2024/01/07 02:42:58;;;;;;;9.77;6.00;;;;;;;10.89;42.35;102036.25;5050356;28;20028;-73
2024/01/07 02:45:23;;;;;;;10.93;5.87;;;;;;;10.64;43.21;102041.28;5065957;28;20028;-73
2024/01/07 02:47:49;;;;;;;13.17;5.47;;;;;;;11.08;42.55;102041.63;5069159;28;20036;-73
2024/01/07 02:50:15;;;;;;;7.60;4.47;;;;;;;10.72;42.83;102046.59;5054834;28;20142;-73
2024/01/07 02:52:41;;;;;;;10.10;5.03;;;;;;;9.92;44.67;102049.22;5045340;28;20485;-73
2024/01/07 02:55:07;;;;;;;8.00;4.43;;;;;;;8.92;46.31;102051.28;5053435;28;20039;-73
2024/01/07 02:57:32;;;;;;;10.33;5.67;;;;;;;10.08;44.29;102049.38;5057533;28;20124;-73
2024/01/07 02:59:58;;;;;;;11.73;5.37;;;;;;;10.56;43.88;102040.34;5057218;28;20533;-73
2024/01/07 03:02:23;;;;;;;7.87;4.53;;;;;;;10.17;44.27;102049.50;5049554;28;20057;-73
2024/01/07 03:04:49;;;;;;;10.43;5.17;;;;;;;9.92;44.47;102051.84;5048126;28;20036;-73
2024/01/07 03:07:14;;;;;;;10.23;4.80;;;;;;;8.87;46.33;102052.94;5049298;28;20335;-73
2024/01/07 03:09:39;;;;;;;9.93;5.10;;;;;;;10.26;43.81;102049.63;5050585;28;20033;-75
2024/01/07 03:12:05;;;;;;;11.80;6.40;;;;;;;9.52;46.45;102048.72;5052639;28;20119;-73
2024/01/07 03:14:30;;;;;;;11.30;5.40;;;;;;;10.55;44.03;102056.91;5048536;28;20099;-73
2024/01/07 03:16:55;;;;;;;9.00;5.03;;;;;;;9.89;45.29;102064.88;5054791;28;20037;-73
2024/01/07 03:19:21;;;;;;;12.60;5.53;;;;;;;10.34;44.26;102063.66;5050235;28;20104;-73
2024/01/07 03:21:48;;;;;;;10.83;5.87;;;;;;;10.01;45.62;102064.13;5068956;28;20119;-73
2024/01/07 03:24:13;;;;;;;12.40;6.37;;;;;;;9.74;45.74;102075.09;5068164;28;20055;-73
2024/01/07 03:26:38;;;;;;;11.67;5.73;;;;;;;8.82;46.95;102076.34;5050702;28;20102;-73
2024/01/07 03:29:04;;;;;;;12.17;5.67;;;;;;;9.43;46.34;102077.28;5049800;28;20068;-73
2024/01/07 03:31:29;;;;;;;10.90;5.60;;;;;;;10.18;44.52;102072.16;5048524;28;20043;-73
2024/01/07 03:33:55;;;;;;;12.00;5.43;;;;;;;11.02;43.33;102068.63;5049061;28;20451;-73
2024/01/07 03:36:20;;;;;;;15.63;6.70;;;;;;;10.24;44.53;102082.69;5062732;28;20361;-73
2024/01/07 03:38:46;;;;;;;13.30;6.90;;;;;;;10.44;44.12;102077.72;5068915;28;20537;-73
2024/01/07 03:41:18;;;;;;;13.93;6.43;;;;;;;10.84;43.81;102074.59;5058841;28;20017;-73
2024/01/07 03:43:44;;;;;;;;;;;;;;;10.07;44.58;102085.09;5048710;28;20017;-74
2024/01/07 03:46:10;;;;;;;10.63;5.43;;;;;;;9.99;45.15;102090.22;5073379;28;20238;-74
2024/01/07 03:48:35;;;;;;;15.17;7.30;;;;;;;9.78;45.78;102093.44;5068098;28;20028;-73
2024/01/07 03:51:00;;;;;;;15.97;6.97;;;;;;;9.07;46.96;102102.81;5063056;28;20037;-73
2024/01/07 03:53:26;;;;;;;16.77;8.00;;;;;;;9.63;46.02;102108.88;5048041;28;20025;-73
2024/01/07 03:55:51;;;;;;;16.23;7.47;;;;;;;9.68;45.99;102102.88;5053276;28;20361;-73
2024/01/07 03:58:16;;;;;;;12.77;6.20;;;;;;;9.63;45.07;102119.31;5050689;28;20063;-73
2024/01/07 04:00:42;;;;;;;16.47;6.23;;;;;;;9.53;45.84;102117.44;5050822;28;20027;-73
2024/01/07 04:03:07;;;;;;;14.70;6.97;;;;;;;10.07;44.69;102118.16;5050222;28;20039;-74
2024/01/07 04:05:33;;;;;;;15.37;6.47;;;;;;;10.01;45.10;102119.88;5049551;28;20025;-73
2024/01/07 04:08:01;;;;;;;15.83;6.70;;;;;;;11.09;42.97;102121.91;5067569;28;20036;-73
2024/01/07 04:10:26;;;;;;;13.07;6.50;;;;;;;9.92;44.99;102126.69;5065797;28;20033;-73
2024/01/07 04:12:51;;;;;;;17.33;6.47;;;;;;;10.96;42.99;102121.78;5048235;28;20090;-73
2024/01/07 04:15:17;;;;;;;17.60;7.17;;;;;;;9.61;46.03;102127.13;5047702;28;20060;-73
2024/01/07 04:17:42;;;;;;;13.40;6.67;;;;;;;10.27;44.85;102124.50;5044574;28;20382;-73
2024/01/07 04:20:08;;;;;;;12.50;6.07;;;;;;;10.27;44.58;102123.66;5028098;28;20021;-73
2024/01/07 04:22:33;;;;;;;14.97;6.87;;;;;;;9.25;46.13;102137.91;5058817;28;20033;-73
2024/01/07 04:24:59;;;;;;;14.80;6.60;;;;;;;9.34;46.10;102141.53;5053605;28;20108;-73
2024/01/07 04:27:27;;;;;;;16.03;7.43;;;;;;;9.24;46.09;102136.13;5049793;28;20090;-73
2024/01/07 04:29:52;;;;;;;15.23;7.20;;;;;;;10.01;44.83;102138.16;5048971;28;20484;-73
2024/01/07 04:32:17;;;;;;;19.20;7.60;;;;;;;9.71;44.99;102148.16;5061492;28;20036;-73
2024/01/07 04:34:43;;;;;;;17.63;6.20;;;;;;;9.73;45.91;102149.06;5062810;28;20029;-72
2024/01/07 04:37:08;;;;;;;12.03;6.50;;;;;;;10.21;44.34;102154.91;5058789;28;20043;-71
2024/01/07 04:39:34;;;;;;;12.67;7.13;;;;;;;10.25;44.38;102141.94;5072988;28;20142;-71
2024/01/07 04:41:59;;;;;;;17.73;7.37;;;;;;;10.12;44.67;102140.00;5061062;28;20033;-72
2024/01/07 04:44:24;;;;;;;12.83;6.33;;;;;;;10.13;44.86;102144.38;5072075;28;20157;-71
2024/01/07 04:46:50;;;;;;;13.60;6.27;;;;;;;9.88;45.25;102151.91;5067807;28;20473;-72
2024/01/07 04:49:15;;;;;;;14.50;6.40;;;;;;;9.08;46.94;102154.16;5052258;28;20413;-71
2024/01/07 04:51:40;;;;;;;11.73;6.17;;;;;;;9.68;45.32;102151.59;5051821;28;20025;-71
2024/01/07 04:54:06;;;;;;;13.27;5.77;;;;;;;10.14;43.99;102156.59;5071000;28;20020;-72
2024/01/07 04:56:32;;;;;;;14.07;5.80;;;;;;;10.09;44.67;102160.88;5051621;28;20040;-72
2024/01/07 04:58:57;;;;;;;12.73;5.87;;;;;;;9.42;45.51;102172.09;5071274;28;20024;-72
2024/01/07 05:01:23;;;;;;;11.60;5.70;;;;;;;10.77;43.20;102166.94;5067529;28;20035;-72
2024/01/07 05:03:48;;;;;;;11.23;5.43;;;;;;;9.25;45.24;102180.50;5060850;28;20032;-72
2024/01/07 05:06:14;;;;;;;11.60;5.97;;;;;;;10.21;44.55;102175.81;5051544;28;20025;-72
2024/01/07 05:08:41;;;;;;;10.80;5.43;;;;;;;10.18;44.81;102176.69;5064489;28;20062;-72
2024/01/07 05:11:06;;;;;;;15.77;5.87;;;;;;;10.04;45.40;102183.44;5064307;28;20358;-72
2024/01/07 05:13:32;;;;;;;16.30;7.10;;;;;;;9.47;45.85;102191.31;5064165;28;20107;-71
2024/01/07 05:15:57;;;;;;;10.57;5.83;;;;;;;8.77;46.72;102199.66;5071406;28;20020;-72
2024/01/07 05:18:23;;;;;;;11.30;5.47;;;;;;;9.40;46.60;102197.28;5059639;28;20025;-72
2024/01/07 05:20:49;;;;;;;13.67;6.37;;;;;;;8.34;49.16;102207.44;5050817;28;20390;-72
2024/01/07 05:23:15;;;;;;;15.20;6.57;;;;;;;9.66;46.31;102198.56;5050775;28;20548;-72
2024/01/07 05:25:42;;;;;;;15.87;6.33;;;;;;;9.41;46.52;102201.63;5048141;28;20036;-71
2024/01/07 05:28:08;;;;;;;16.23;7.63;;;;;;;8.94;47.94;102206.06;5056358;28;20024;-72
2024/01/07 05:30:33;;;;;;;8.63;4.00;;;;;;;8.35;48.66;102213.53;5067207;28;20166;-71
2024/01/07 05:32:58;;;;;;;17.67;6.27;;;;;;;9.39;46.49;102208.56;5056464;28;20036;-72
2024/01/07 05:35:24;;;;;;;20.13;7.10;;;;;;;9.72;45.47;102208.22;5070844;28;20206;-72
2024/01/07 05:37:49;;;;;;;20.23;7.73;;;;;;;9.12;46.45;102220.28;5067433;28;20106;-72
2024/01/07 05:40:14;;;;;;;12.57;6.53;;;;;;;9.10;47.07;102217.63;5050079;28;20029;-72
2024/01/07 05:42:40;;;;;;;17.80;7.73;;;;;;;9.31;45.99;102227.59;5051472;28;20024;-72
2024/01/07 05:45:06;;;;;;;14.67;7.47;;;;;;;8.98;47.44;102226.13;5047374;28;20513;-71
2024/01/07 05:47:31;;;;;;;14.37;7.03;;;;;;;9.53;46.54;102222.72;5031999;28;20032;-72
2024/01/07 05:49:56;;;;;;;15.87;7.03;;;;;;;9.82;45.83;102224.91;5059589;28;20141;-72
2024/01/07 05:52:23;;;;;;;17.30;8.10;;;;;;;10.08;45.00;102227.03;5049249;28;20017;-72
2024/01/07 05:54:48;;;;;;;13.87;6.93;;;;;;;9.48;45.29;102225.28;5066047;28;20028;-72
2024/01/07 05:57:14;;;;;;;14.50;7.07;;;;;;;9.23;45.70;102244.84;5070586;28;20365;-72
2024/01/07 05:59:39;;;;;;;17.87;8.23;;;;;;;9.17;46.09;102229.06;5054800;28;20083;-73
2024/01/07 06:02:04;;;;;;;15.20;7.30;;;;;;;9.28;46.11;102242.31;5050464;28;20025;-72
2024/01/07 06:04:30;;;;;;;12.20;6.33;;;;;;;9.86;45.04;102242.38;5062567;28;20445;-72
2024/01/07 06:06:55;;;;;;;16.70;7.10;;;;;;;10.07;44.43;102238.34;5068223;28;20028;-72
2024/01/07 06:09:20;;;;;;;16.57;7.53;;;;;;;10.04;44.30;102241.78;5054768;28;20024;-72
2024/01/07 06:11:46;;;;;;;15.73;7.10;;;;;;;9.34;45.81;102258.97;5050295;28;20039;-72
2024/01/07 06:14:12;;;;;;;14.00;7.80;;;;;;;9.81;44.25;102254.53;5056319;28;20066;-72
2024/01/07 06:16:37;;;;;;;14.90;6.97;;;;;;;9.66;44.83;102261.25;5056335;28;20053;-72
2024/01/07 06:19:03;;;;;;;15.70;7.13;;;;;;;9.89;44.40;102263.34;5072677;28;20369;-73
2024/01/07 06:21:31;;;;;;;15.77;6.93;;;;;;;9.30;45.48;102272.81;5058480;28;20029;-72
2024/01/07 06:23:56;;;;;;;13.20;6.77;;;;;;;9.65;44.70;102262.09;5054617;28;20047;-72
2024/01/07 06:26:22;;;;;;;18.83;6.77;;;;;;;8.90;46.17;102269.44;5055684;28;20056;-72
2024/01/07 06:28:47;;;;;;;15.33;7.47;;;;;;;9.21;46.20;102282.19;5049723;28;20021;-72
2024/01/07 06:31:12;;;;;;;15.07;6.83;;;;;;;9.26;46.11;102286.66;5071078;28;20034;-72
2024/01/07 06:33:38;;;;;;;17.00;8.20;;;;;;;9.57;45.25;102287.19;5062638;28;20112;-71
2024/01/07 06:36:04;;;;;;;19.60;7.97;;;;;;;9.66;45.72;102292.56;5057810;28;20024;-72
2024/01/07 06:38:29;;;;;;;18.87;8.57;;;;;;;10.61;43.12;102286.19;5049363;28;20024;-72
2024/01/07 06:40:55;;;;;;;15.83;7.07;;;;;;;9.37;45.89;102299.91;5044037;28;20121;-72
2024/01/07 06:43:20;;;;;;;17.20;7.67;;;;;;;10.29;44.92;102297.91;5061589;28;20480;-72
2024/01/07 06:45:46;;;;;;;14.07;6.77;;;;;;;9.04;46.71;102305.31;5066961;28;20496;-72
2024/01/07 06:48:11;;;;;;;17.63;7.40;;;;;;;9.52;45.19;102314.97;5068953;28;20025;-72
2024/01/07 06:50:37;;;;;;;15.07;6.87;;;;;;;9.08;46.09;102317.59;5055058;28;20045;-72
2024/01/07 06:53:02;;;;;;;16.30;7.47;;;;;;;9.23;45.57;102312.69;5049277;28;20017;-72
2024/01/07 06:55:27;;;;;;;16.47;7.70;;;;;;;9.76;45.88;102324.06;5061807;28;20048;-72
2024/01/07 06:57:53;;;;;;;15.60;7.43;;;;;;;10.08;44.24;102321.09;5055924;28;20029;-72
2024/01/07 07:00:19;;;;;;;16.27;7.60;;;;;;;9.40;45.64;102330.41;5061141;28;20056;-72
2024/01/07 07:02:44;;;;;;;18.40;8.03;;;;;;;10.00;44.15;102328.81;5047888;28;20102;-72
2024/01/07 07:05:10;;;;;;;15.43;7.07;;;;;;;9.44;45.13;102334.81;5059728;28;20043;-72
2024/01/07 07:07:35;;;;;;;18.47;6.63;;;;;;;8.96;45.80;102334.75;5069986;28;20020;-72
2024/01/07 07:10:01;;;;;;;13.40;6.83;;;;;;;8.79;46.96;102330.91;5059275;28;20029;-72
2024/01/07 07:12:26;;;;;;;18.63;6.97;;;;;;;9.21;45.89;102340.47;5048019;28;20029;-72
2024/01/07 07:14:51;;;;;;;13.23;6.30;;;;;;;9.36;45.83;102349.47;5057347;28;20119;-72
2024/01/07 07:17:17;;;;;;;18.03;7.70;;;;;;;8.90;45.98;102344.16;5068455;28;20107;-72
2024/01/07 07:19:42;;;;;;;16.77;7.10;;;;;;;9.38;44.99;102355.56;5064787;28;20025;-72
2024/01/07 07:22:07;;;;;;;12.77;6.47;;;;;;;9.52;45.45;102354.13;5049910;28;20064;-72
2024/01/07 07:24:33;;;;;;;7.73;4.50;;;;;;;8.17;46.22;102360.75;5050867;28;20036;-72
2024/01/07 07:26:58;;;;;;;12.33;6.17;;;;;;;9.06;46.17;102367.13;5059056;28;20094;-72
2024/01/07 07:29:23;;;;;;;13.87;7.10;;;;;;;8.64;46.00;102368.84;5046204;28;20033;-72
2024/01/07 07:31:49;;;;;;;12.00;6.37;;;;;;;8.90;45.43;102371.16;5068567;28;20081;-71
2024/01/07 07:34:14;;;;;;;14.70;6.70;;;;;;;9.59;44.09;102374.25;5068948;28;20032;-72
2024/01/07 07:36:41;;;;;;;17.03;8.20;;;;;;;10.14;43.31;102386.53;5045682;28;20481;-72
2024/01/07 07:39:06;;;;;;;13.30;6.47;;;;;;;9.21;45.47;102387.44;5030134;28;20033;-72
2024/01/07 07:41:32;;;;;;;12.53;7.07;;;;;;;9.27;44.58;102387.56;5060411;28;20047;-72
2024/01/07 07:43:57;;;;;;;13.00;7.33;;;;;;;8.64;46.05;102389.69;5048035;28;20495;-72
2024/01/07 07:46:23;;;;;;;14.50;7.33;;;;;;;8.87;46.21;102397.13;5066001;28;20472;-72
2024/01/07 07:48:48;;;;;;;12.73;6.53;;;;;;;9.03;46.28;102407.94;5069591;28;20367;-72
2024/01/07 07:51:14;;;;;;;14.17;7.47;;;;;;;9.26;45.38;102406.69;5064443;28;20032;-72
2024/01/07 07:53:42;;;;;;;14.47;6.10;;;;;;;8.89;46.17;102410.22;5053797;28;20036;-72
2024/01/07 07:56:08;;;;;;;13.47;6.60;;;;;;;8.72;46.41;102412.44;5049273;28;20473;-72
2024/01/07 07:58:33;;;;;;;16.50;5.47;;;;;;;8.87;46.09;102420.59;5047386;28;20025;-72
2024/01/07 08:00:59;;;;;;;15.30;7.00;;;;;;;9.78;44.79;102412.03;5060076;28;20113;-71
2024/01/07 08:03:24;;;;;;;12.53;6.27;;;;;;;9.95;44.26;102429.75;5068655;28;20021;-72
2024/01/07 08:05:49;;;;;;;12.60;6.90;;;;;;;9.29;45.39;102424.13;5052932;28;20554;-71
2024/01/07 08:08:16;;;;;;;13.13;5.80;;;;;;;9.83;43.89;102425.16;5057687;28;20469;-72
2024/01/07 08:10:42;;;;;;;22.77;6.90;;;;;;;9.84;44.16;102426.94;5059545;28;20052;-72
2024/01/07 08:13:08;;;;;;;19.07;5.90;;;;;;;9.12;44.32;102413.31;5066363;28;20102;-72
2024/01/07 08:15:34;;;;;;;11.70;6.00;;;;;;;8.40;46.09;102436.00;5057214;28;20031;-72
2024/01/07 08:18:00;;;;;;;13.63;6.10;;;;;;;8.18;47.45;102440.66;5072479;28;20025;-72
2024/01/07 08:20:25;;;;;;;8.73;5.00;;;;;;;8.19;46.82;102445.03;5067634;28;20020;-72
2024/01/07 08:22:50;;;;;;;8.63;5.40;;;;;;;8.95;45.95;102442.53;5060482;28;20273;-72
2024/01/07 08:25:16;;;;;;;12.57;5.30;;;;;;;9.09;45.54;102447.16;5039836;28;20027;-72
2024/01/07 08:27:41;;;;;;;15.03;6.50;;;;;;;9.32;45.18;102458.97;5062259;28;20032;-72
2024/01/07 08:30:07;;;;;;;13.73;6.03;;;;;;;8.97;45.53;102456.50;5045986;28;20115;-72
2024/01/07 08:32:33;;;;;;;12.30;6.13;;;;;;;8.82;45.38;102467.44;5064472;28;20082;-72
2024/01/07 08:34:58;;;;;;;12.57;6.03;;;;;;;8.83;45.62;102473.53;5052545;28;20388;-73
2024/01/07 08:37:24;;;;;;;13.07;5.90;;;;;;;9.45;44.70;102459.22;5059931;28;20029;-73
2024/01/07 08:39:49;;;;;;;9.23;5.00;;;;;;;8.56;46.40;102469.44;5031657;28;20053;-73
2024/01/07 08:42:15;;;;;;;14.67;6.57;;;;;;;9.12;45.43;102469.00;5048354;28;20035;-72
2024/01/07 08:44:41;;;;;;;11.93;6.13;;;;;;;9.64;43.77;102466.63;5051597;28;20032;-72
2024/01/07 08:47:06;;;;;;;13.17;6.13;;;;;;;9.13;44.61;102472.47;5066464;28;20052;-72
2024/01/07 08:49:34;;;;;;;10.93;5.37;;;;;;;9.11;44.97;102472.44;5070492;28;20040;-72
2024/01/07 08:52:00;;;;;;;8.37;4.90;;;;;;;8.36;46.06;102483.66;5058251;28;20090;-73
2024/01/07 08:54:25;;;;;;;9.03;5.73;;;;;;;8.73;46.01;102488.09;5038316;28;20112;-72
2024/01/07 08:56:50;;;;;;;10.37;5.87;;;;;;;8.36;47.40;102488.88;5049366;28;20033;-73
2024/01/07 08:59:16;;;;;;;14.07;6.90;;;;;;;9.17;44.80;102497.78;5051364;28;20110;-72
2024/01/07 09:01:41;;;;;;;11.77;5.97;;;;;;;9.03;45.26;102501.84;5051838;28;20131;-73
2024/01/07 09:04:07;;;;;;;17.37;5.50;;;;;;;8.95;45.10;102509.47;5047752;28;20449;-73
2024/01/07 09:06:32;;;;;;;13.67;6.07;;;;;;;10.08;43.22;102506.59;5056529;28;20033;-73
2024/01/07 09:08:58;;;;;;;16.00;6.00;;;;;;;9.20;44.54;102503.06;5071261;28;20028;-72
2024/01/07 09:11:23;;;;;;;11.10;5.20;;;;;;;9.11;44.43;102500.28;5068110;28;20082;-72
2024/01/07 09:13:50;;;;;;;13.67;7.37;;;;;;;8.57;45.77;102512.00;5069724;28;20025;-72
2024/01/07 09:16:15;;;;;;;13.33;6.93;;;;;;;9.03;44.77;102514.88;5054394;28;20498;-72
2024/01/07 09:18:41;;;;;;;10.57;6.30;;;;;;;9.66;43.83;102504.06;5053769;28;20033;-72
2024/01/07 09:21:07;;;;;;;11.03;5.73;;;;;;;9.21;44.50;102511.78;5053368;28;20032;-72
2024/01/07 09:23:33;;;;;;;13.23;6.73;;;;;;;9.81;43.72;102515.69;5054580;28;20029;-72
2024/01/07 09:25:59;;;;;;;9.90;5.90;;;;;;;8.74;44.40;102525.50;5051572;28;20032;-72
2024/01/07 09:28:25;;;;;;;12.33;6.33;;;;;;;8.49;45.55;102535.28;5071183;28;20031;-72
2024/01/07 09:30:50;;;;;;;9.03;5.63;;;;;;;8.66;44.96;102539.19;5053429;28;20108;-72
2024/01/07 09:33:16;;;;;;;13.27;5.63;;;;;;;8.75;44.69;102535.06;5052307;28;20452;-72
2024/01/07 09:35:43;;;;;;;13.03;6.97;;;;;;;8.63;45.36;102546.94;5052016;28;20025;-72
2024/01/07 09:38:09;;;;;;;14.83;5.77;;;;;;;8.47;45.06;102542.19;5050307;28;20049;-72
2024/01/07 09:40:34;;;;;;;15.90;6.20;;;;;;;9.45;43.59;102545.38;5050154;28;20033;-72
2024/01/07 09:43:00;;;;;;;11.13;5.57;;;;;;;8.95;43.96;102557.28;5051133;28;20028;-72
2024/01/07 09:45:26;;;;;;;8.40;5.10;;;;;;;9.31;43.45;102556.41;5045947;28;20029;-72
2024/01/07 09:47:51;;;;;;;18.40;5.30;;;;;;;8.68;44.16;102557.47;5047040;28;20032;-72
2024/01/07 09:50:17;;;;;;;10.50;5.97;;;;;;;9.11;43.53;102558.53;5050402;28;20041;-72
2024/01/07 09:52:46;;;;;;;14.00;5.13;;;;;;;8.65;44.50;102568.72;5050156;28;20021;-72
2024/01/07 09:55:27;;;;;;;16.37;5.43;;;;;;;9.17;44.11;102573.44;5050218;28;20492;-72
2024/01/07 09:57:52;;;;;;;10.57;5.27;;;;;;;8.76;44.43;102571.59;5053786;28;20480;-72
2024/01/07 10:00:18;;;;;;;9.43;5.40;;;;;;;9.27;42.90;102580.66;5030724;28;20040;-72
2024/01/07 10:02:43;;;;;;;11.77;5.77;;;;;;;9.26;43.38;102584.13;5051461;28;20083;-72
2024/01/07 10:05:09;;;;;;;11.93;6.30;;;;;;;9.76;42.17;102580.00;5046181;28;20025;-72
2024/01/07 10:07:34;;;;;;;9.70;5.03;;;;;;;8.80;43.65;102583.00;5068007;28;20113;-73
2024/01/07 10:10:15;;;;;;;10.83;5.40;;;;;;;9.09;43.63;102588.03;5054166;28;20065;-72
2024/01/07 10:12:41;;;;;;;12.10;6.30;;;;;;;8.49;44.76;102593.50;5047714;28;20044;-72
2024/01/07 10:15:07;;;;;;;9.83;5.30;;;;;;;9.03;43.21;102598.34;5048025;28;20025;-72
2024/01/07 10:17:33;;;;;;;12.60;6.60;;;;;;;8.46;44.25;102597.75;5060246;28;20025;-72
2024/01/07 10:19:58;;;;;;;9.67;5.27;;;;;;;8.22;44.84;102588.38;5070818;28;20017;-72
2024/01/07 10:22:24;;;;;;;8.07;4.47;;;;;;;8.45;44.42;102596.88;5058858;28;20033;-72
2024/01/07 10:24:51;;;;;;;6.63;4.07;;;;;;;8.59;44.27;102609.41;5062966;28;20041;-72
2024/01/07 10:27:17;;;;;;;11.97;6.87;;;;;;;8.95;43.36;102592.94;5054971;28;20036;-72
2024/01/07 10:29:43;;;;;;;8.73;4.53;;;;;;;9.64;42.11;102591.94;5055325;28;20035;-72
2024/01/07 10:32:08;;;;;;;13.23;5.17;;;;;;;9.79;41.28;102596.59;5050351;28;20039;-72
2024/01/07 10:34:35;;;;;;;9.60;4.60;;;;;;;10.02;40.31;102593.59;5043496;28;20029;-72
2024/01/07 10:37:03;;;;;;;8.63;4.90;;;;;;;8.90;42.43;102610.19;5031437;28;20026;-72
2024/01/07 10:39:31;;;;;;;10.23;4.57;;;;;;;9.13;42.03;102605.53;5056400;28;20104;-72
2024/01/07 10:41:57;;;;;;;10.73;5.17;;;;;;;8.28;44.02;102606.81;5050135;28;20489;-72
2024/01/07 10:44:25;;;;;;;7.33;4.17;;;;;;;9.43;41.62;102612.34;5061282;28;20657;-72
2024/01/07 10:46:58;;;;;;;9.60;5.13;;;;;;;8.31;44.13;102617.31;5044116;28;20040;-72
2024/01/07 10:49:25;;;;;;;8.60;4.33;;;;;;;8.66;42.74;102617.41;5047516;28;20049;-72
2024/01/07 10:52:07;;;;;;;7.17;3.77;;;;;;;8.78;41.88;102615.97;5041234;28;20029;-71
2024/01/07 10:54:34;;;;;;;8.20;4.85;;;;;;;9.74;41.17;102613.00;5049604;28;20033;-73
2024/01/07 10:57:12;;;;;;;15.33;5.90;;;;;;;8.98;42.26;102614.75;5045539;28;20120;-72
2024/01/07 10:59:40;;;;;;;6.27;3.83;;;;;;;8.44;42.85;102620.25;5047248;28;20056;-72
2024/01/07 11:02:07;;;;;;;13.87;5.63;;;;;;;9.74;41.11;102623.44;5054408;28;20053;-72
2024/01/07 11:05:07;;;;;;;8.70;4.00;;;;;;;9.46;40.98;102633.28;5048254;28;20032;-72
2024/01/07 11:07:43;;;;;;;8.83;4.70;;;;;;;8.70;40.99;102622.72;5065268;28;20550;-72
2024/01/07 11:10:22;;;;;;;7.77;3.93;;;;;;;9.88;40.34;102614.19;5060754;28;20535;-72
2024/01/07 11:12:59;;;;;;;8.23;3.80;;;;;;;8.75;41.54;102613.28;5046163;28;20036;-72
2024/01/07 11:15:49;;;;;;;13.07;4.10;;;;;;;10.11;39.39;102605.94;5047082;28;20047;-72
2024/01/07 11:18:22;;;;;;;9.80;4.17;;;;;;;9.81;39.65;102617.53;5049433;28;20102;-72
2024/01/07 11:20:48;;;;;;;;;;;;;;;9.75;39.41;102615.66;5040087;28;20488;-72